createdAt,value
2017-10-01T00:01:09.261Z,14.30
2017-10-01T00:03:35.923Z,14.40
2017-10-01T00:06:02.193Z,14.40
2017-10-01T00:08:28.475Z,14.40
2017-10-01T00:10:54.744Z,14.40
2017-10-01T00:13:21.019Z,14.50
2017-10-01T00:15:47.674Z,14.40
2017-10-01T00:18:13.943Z,14.50
2017-10-01T00:20:40.259Z,14.30
2017-10-01T00:23:06.526Z,14.20
2017-10-01T00:25:32.805Z,14.30
2017-10-01T00:27:59.101Z,14.40
2017-10-01T00:30:25.747Z,14.50
2017-10-01T00:32:52.039Z,14.40
2017-10-01T00:35:18.301Z,14.20
2017-10-01T00:37:44.947Z,13.90
2017-10-01T00:40:11.592Z,13.90
2017-10-01T00:42:37.912Z,13.90
2017-10-01T00:45:04.628Z,14.10
2017-10-01T00:47:30.879Z,14.10
2017-10-01T00:49:57.182Z,14.20
2017-10-01T00:52:23.459Z,14.20
2017-10-01T00:54:49.760Z,14.20
2017-10-01T00:57:16.431Z,14.30
2017-10-01T00:59:42.753Z,14.30
2017-10-01T01:02:09.007Z,14.20
2017-10-01T01:04:35.279Z,13.90
2017-10-01T01:07:01.597Z,13.70
2017-10-01T01:09:27.882Z,13.70
2017-10-01T01:11:54.168Z,13.80
2017-10-01T01:14:20.469Z,14.00
2017-10-01T01:16:46.782Z,13.90
2017-10-01T01:19:13.131Z,14.00
2017-10-01T01:21:39.420Z,14.20
2017-10-01T01:24:05.738Z,14.40
2017-10-01T01:26:32.065Z,14.20
2017-10-01T01:28:58.379Z,14.00
2017-10-01T01:31:25.045Z,14.10
2017-10-01T01:33:51.363Z,14.10
2017-10-01T01:36:17.998Z,13.90
2017-10-01T01:38:44.707Z,13.90
2017-10-01T01:41:11.037Z,13.80
2017-10-01T01:43:37.336Z,13.80
2017-10-01T01:46:03.646Z,13.70
2017-10-01T01:48:29.922Z,13.70
2017-10-01T01:50:56.233Z,13.70
2017-10-01T01:53:22.536Z,13.60
2017-10-01T01:55:48.882Z,13.90
2017-10-01T01:58:15.188Z,14.00
2017-10-01T02:00:41.819Z,13.80
2017-10-01T02:03:08.524Z,13.80
2017-10-01T02:05:34.815Z,13.80
2017-10-01T02:08:01.128Z,13.80
2017-10-01T02:10:27.442Z,13.80
2017-10-01T02:12:53.743Z,13.80
2017-10-01T02:15:20.053Z,13.90
2017-10-01T02:17:46.360Z,13.90
2017-10-01T02:20:12.656Z,13.80
2017-10-01T02:22:39.321Z,13.90
2017-10-01T02:25:05.618Z,13.90
2017-10-01T02:27:31.914Z,13.80
2017-10-01T02:29:58.204Z,13.50
2017-10-01T02:32:24.787Z,13.60
2017-10-01T02:34:51.077Z,13.70
2017-10-01T02:37:17.372Z,13.70
2017-10-01T02:39:43.696Z,13.70
2017-10-01T02:42:09.988Z,13.70
2017-10-01T02:44:36.327Z,13.60
2017-10-01T02:47:02.600Z,13.60
2017-10-01T02:49:29.280Z,13.70
2017-10-01T02:51:55.574Z,13.70
2017-10-01T02:54:21.879Z,13.80
2017-10-01T02:56:48.203Z,13.80
2017-10-01T02:59:14.503Z,13.80
2017-10-01T03:01:40.794Z,13.90
2017-10-01T03:04:07.430Z,14.20
2017-10-01T03:06:34.130Z,14.20
2017-10-01T03:09:00.411Z,14.20
2017-10-01T03:11:26.716Z,14.20
2017-10-01T03:13:53.376Z,14.20
2017-10-01T03:16:19.700Z,14.20
2017-10-01T03:18:45.991Z,14.30
2017-10-01T03:21:12.292Z,14.20
2017-10-01T03:23:38.579Z,14.30
2017-10-01T03:26:04.883Z,14.30
2017-10-01T03:28:31.197Z,14.10
2017-10-01T03:30:57.475Z,14.00
2017-10-01T03:33:23.783Z,13.90
2017-10-01T03:35:50.463Z,13.60
2017-10-01T03:38:16.747Z,13.60
2017-10-01T03:40:43.056Z,13.70
2017-10-01T03:43:09.352Z,13.80
2017-10-01T03:45:35.648Z,13.80
2017-10-01T03:48:01.948Z,13.80
2017-10-01T03:50:28.261Z,13.90
2017-10-01T03:52:54.559Z,13.90
2017-10-01T03:55:20.879Z,13.80
2017-10-01T03:57:47.549Z,13.70
2017-10-01T04:00:13.844Z,13.70
2017-10-01T04:02:40.119Z,13.80
2017-10-01T04:05:06.410Z,14.00
2017-10-01T04:07:33.040Z,14.10
2017-10-01T04:09:59.712Z,14.20
2017-10-01T04:12:26.002Z,14.20
2017-10-01T04:14:52.655Z,14.30
2017-10-01T04:17:18.952Z,14.30
2017-10-01T04:19:45.190Z,14.40
2017-10-01T04:22:11.446Z,14.40
2017-10-01T04:24:38.019Z,14.30
2017-10-01T04:27:04.352Z,14.10
2017-10-01T04:29:30.596Z,14.10
2017-10-01T04:31:56.876Z,13.80
2017-10-01T04:34:23.140Z,13.70
2017-10-01T04:36:49.465Z,13.60
2017-10-01T04:39:15.764Z,13.70
2017-10-01T04:41:42.028Z,13.70
2017-10-01T04:44:08.303Z,13.80
2017-10-01T04:46:34.927Z,13.60
2017-10-01T04:49:01.227Z,13.60
2017-10-01T04:51:27.495Z,13.70
2017-10-01T04:53:54.102Z,13.80
2017-10-01T04:56:20.420Z,13.80
2017-10-01T04:58:46.677Z,13.90
2017-10-01T05:01:12.943Z,14.00
2017-10-01T05:03:39.193Z,14.10
2017-10-01T05:06:05.490Z,14.00
2017-10-01T05:08:31.784Z,13.90
2017-10-01T05:10:58.062Z,13.80
2017-10-01T05:13:24.324Z,13.80
2017-10-01T05:15:50.568Z,13.80
2017-10-01T05:18:17.004Z,13.90
2017-10-01T05:20:43.292Z,13.90
2017-10-01T05:23:09.578Z,13.80
2017-10-01T05:25:36.232Z,13.80
2017-10-01T05:28:02.856Z,13.60
2017-10-01T05:30:29.497Z,13.60
2017-10-01T05:32:56.577Z,13.70
2017-10-01T05:35:22.893Z,13.70
2017-10-01T05:37:49.169Z,13.80
2017-10-01T05:40:15.468Z,13.80
2017-10-01T05:42:41.720Z,13.80
2017-10-01T05:45:07.999Z,14.00
2017-10-01T05:47:34.620Z,14.10
2017-10-01T05:50:00.937Z,14.10
2017-10-01T05:52:27.223Z,14.00
2017-10-01T05:54:53.499Z,14.00
2017-10-01T05:57:19.759Z,14.00
2017-10-01T05:59:46.062Z,14.00
2017-10-01T06:02:12.346Z,14.10
2017-10-01T06:04:38.695Z,14.10
2017-10-01T06:07:04.979Z,14.10
2017-10-01T06:09:31.608Z,14.10
2017-10-01T06:11:58.271Z,14.00
2017-10-01T06:14:24.552Z,14.00
2017-10-01T06:16:50.847Z,14.00
2017-10-01T06:19:17.135Z,13.90
2017-10-01T06:21:43.818Z,14.10
2017-10-01T06:24:10.108Z,14.10
2017-10-01T06:26:36.437Z,14.30
2017-10-01T06:29:03.107Z,14.40
2017-10-01T06:31:29.452Z,14.40
2017-10-01T06:33:55.733Z,14.50
2017-10-01T06:36:22.385Z,14.50
2017-10-01T06:38:48.672Z,14.50
2017-10-01T06:41:14.966Z,14.60
2017-10-01T06:43:41.278Z,14.70
2017-10-01T06:46:07.568Z,14.70
2017-10-01T06:48:33.862Z,14.80
2017-10-01T06:51:00.163Z,14.70
2017-10-01T06:53:26.489Z,14.60
2017-10-01T06:55:52.764Z,14.70
2017-10-01T06:58:19.094Z,14.80
2017-10-01T07:00:45.407Z,14.70
2017-10-01T07:03:11.707Z,14.70
2017-10-01T07:05:38.014Z,14.70
2017-10-01T07:08:04.307Z,14.90
2017-10-01T07:10:31.594Z,15.00
2017-10-01T07:12:57.863Z,14.90
2017-10-01T07:15:24.152Z,14.90
2017-10-01T07:17:50.426Z,15.00
2017-10-01T07:20:16.743Z,15.10
2017-10-01T07:22:43.011Z,15.20
2017-10-01T07:25:09.274Z,15.30
2017-10-01T07:27:35.576Z,15.30
2017-10-01T07:30:02.483Z,15.30
2017-10-01T07:32:28.774Z,15.10
2017-10-01T07:34:55.079Z,15.10
2017-10-01T07:37:21.390Z,15.20
2017-10-01T07:39:47.723Z,15.10
2017-10-01T07:42:14.056Z,15.00
2017-10-01T07:44:40.376Z,15.00
2017-10-01T07:47:06.740Z,14.80
2017-10-01T07:49:33.028Z,14.50
2017-10-01T07:51:59.290Z,14.40
2017-10-01T07:54:25.588Z,14.20
2017-10-01T07:56:51.847Z,14.20
2017-10-01T07:59:18.156Z,13.90
2017-10-01T08:01:44.423Z,13.90
2017-10-01T08:04:10.713Z,13.90
2017-10-01T08:06:36.999Z,14.00
2017-10-01T08:09:10.114Z,14.10
2017-10-01T08:11:36.414Z,14.00
2017-10-01T08:14:02.705Z,13.90
2017-10-01T08:16:28.981Z,13.80
2017-10-01T08:18:56.404Z,13.60
2017-10-01T08:21:22.713Z,13.80
2017-10-01T08:23:49.099Z,13.80
2017-10-01T08:26:15.412Z,13.90
2017-10-01T08:28:41.679Z,14.10
2017-10-01T08:31:08.041Z,14.20
2017-10-01T08:33:34.337Z,14.50
2017-10-01T08:36:00.669Z,14.60
2017-10-01T08:38:26.992Z,14.80
2017-10-01T08:40:53.291Z,14.90
2017-10-01T08:43:19.615Z,15.10
2017-10-01T08:45:45.888Z,15.10
2017-10-01T08:48:12.621Z,15.20
2017-10-01T08:50:38.953Z,15.30
2017-10-01T08:53:05.272Z,15.20
2017-10-01T08:55:31.976Z,15.50
2017-10-01T08:57:58.251Z,15.50
2017-10-01T09:00:24.568Z,15.60
2017-10-01T09:02:51.212Z,15.80
2017-10-01T09:05:17.535Z,15.80
2017-10-01T09:07:43.872Z,15.90
2017-10-01T09:10:10.172Z,16.10
2017-10-01T09:12:36.544Z,16.30
2017-10-01T09:15:02.885Z,16.40
2017-10-01T09:17:29.252Z,16.60
2017-10-01T09:19:56.032Z,17.20
2017-10-01T09:22:23.270Z,17.60
2017-10-01T09:24:49.728Z,17.60
2017-10-01T09:27:16.096Z,18.20
2017-10-01T09:29:42.496Z,18.60
2017-10-01T09:32:09.227Z,19.00
2017-10-01T09:34:35.516Z,19.40
2017-10-01T09:37:02.745Z,19.60
2017-10-01T09:39:29.732Z,19.70
2017-10-01T09:41:56.042Z,19.80
2017-10-01T09:44:22.363Z,19.90
2017-10-01T09:46:48.657Z,19.70
2017-10-01T09:49:15.048Z,19.50
2017-10-01T09:51:41.333Z,19.30
2017-10-01T09:54:07.647Z,19.20
2017-10-01T09:56:33.992Z,19.00
2017-10-01T09:59:00.318Z,18.90
2017-10-01T10:01:26.620Z,18.80
2017-10-01T10:03:53.290Z,18.50
2017-10-01T10:06:19.599Z,18.50
2017-10-01T10:08:45.876Z,18.40
2017-10-01T10:11:12.212Z,18.30
2017-10-01T10:13:38.510Z,18.20
2017-10-01T10:16:04.804Z,18.20
2017-10-01T10:18:31.504Z,18.40
2017-10-01T10:20:57.939Z,18.40
2017-10-01T10:23:25.950Z,18.30
2017-10-01T10:25:52.856Z,18.60
2017-10-01T10:28:19.246Z,19.00
2017-10-01T10:30:45.559Z,19.00
2017-10-01T10:33:11.875Z,18.60
2017-10-01T10:35:38.636Z,18.60
2017-10-01T10:38:05.098Z,18.60
2017-10-01T10:40:31.539Z,18.70
2017-10-01T10:42:57.884Z,18.90
2017-10-01T10:45:24.273Z,19.30
2017-10-01T10:47:50.584Z,19.80
2017-10-01T10:50:16.900Z,20.40
2017-10-01T10:52:43.568Z,21.30
2017-10-01T10:55:09.905Z,21.30
2017-10-01T10:57:36.242Z,21.50
2017-10-01T11:00:02.585Z,21.80
2017-10-01T11:02:28.913Z,22.50
2017-10-01T11:04:55.227Z,25.60
2017-10-01T11:07:21.569Z,29.90
2017-10-01T11:09:47.868Z,33.70
2017-10-01T11:12:14.982Z,36.50
2017-10-01T11:14:41.296Z,37.90
2017-10-01T11:17:08.036Z,36.40
2017-10-01T11:19:34.408Z,36.30
2017-10-01T11:22:00.686Z,37.80
2017-10-01T11:24:26.972Z,38.40
2017-10-01T11:26:54.054Z,39.20
2017-10-01T11:29:20.371Z,39.20
2017-10-01T11:31:46.692Z,38.40
2017-10-01T11:34:13.055Z,36.90
2017-10-01T11:36:39.330Z,35.10
2017-10-01T11:39:06.697Z,36.30
2017-10-01T11:41:34.071Z,35.80
2017-10-01T11:44:00.393Z,35.80
2017-10-01T11:46:26.719Z,35.50
2017-10-01T11:48:53.050Z,36.90
2017-10-01T11:51:19.386Z,39.00
2017-10-01T11:53:46.635Z,40.90
2017-10-01T11:56:12.930Z,42.20
2017-10-01T11:58:39.265Z,43.40
2017-10-01T12:01:06.805Z,44.90
2017-10-01T12:03:33.119Z,44.90
2017-10-01T12:06:00.281Z,44.60
2017-10-01T12:08:27.474Z,45.40
2017-10-01T12:10:54.127Z,44.40
2017-10-01T12:13:20.412Z,44.40
2017-10-01T12:15:47.001Z,44.50
2017-10-01T12:18:13.291Z,44.90
2017-10-01T12:20:39.560Z,46.40
2017-10-01T12:23:05.863Z,46.90
2017-10-01T12:25:32.521Z,48.90
2017-10-01T12:27:58.843Z,48.90
2017-10-01T12:30:25.143Z,49.70
2017-10-01T12:32:51.476Z,49.10
2017-10-01T12:35:17.795Z,49.40
2017-10-01T12:37:44.073Z,48.50
2017-10-01T12:40:10.383Z,47.40
2017-10-01T12:42:36.687Z,44.60
2017-10-01T12:45:03.000Z,40.70
2017-10-01T12:47:29.280Z,36.60
2017-10-01T12:49:56.511Z,35.90
2017-10-01T12:52:22.800Z,38.30
2017-10-01T12:54:49.071Z,40.10
2017-10-01T12:57:15.741Z,44.10
2017-10-01T12:59:42.023Z,44.10
2017-10-01T13:02:11.166Z,42.60
2017-10-01T13:04:37.834Z,39.00
2017-10-01T13:07:04.202Z,35.60
2017-10-01T13:09:30.489Z,32.80
2017-10-01T13:11:56.812Z,30.30
2017-10-01T13:14:23.130Z,28.60
2017-10-01T13:16:49.865Z,27.30
2017-10-01T13:19:16.125Z,26.40
2017-10-01T13:21:42.424Z,25.50
2017-10-01T13:24:09.672Z,24.80
2017-10-01T13:26:35.969Z,24.40
2017-10-01T13:29:02.298Z,24.00
2017-10-01T13:31:28.603Z,24.40
2017-10-01T13:33:54.896Z,27.60
2017-10-01T13:36:21.197Z,32.00
2017-10-01T13:38:47.504Z,33.40
2017-10-01T13:41:13.900Z,33.30
2017-10-01T13:43:40.214Z,32.90
2017-10-01T13:46:06.501Z,31.70
2017-10-01T13:48:32.795Z,30.40
2017-10-01T13:50:59.088Z,30.00
2017-10-01T13:53:25.740Z,30.40
2017-10-01T13:55:52.057Z,30.40
2017-10-01T13:58:18.354Z,29.50
2017-10-01T14:00:44.677Z,29.40
2017-10-01T14:03:11.595Z,29.90
2017-10-01T14:05:45.145Z,31.40
2017-10-01T14:08:11.797Z,31.40
2017-10-01T14:10:39.104Z,31.40
2017-10-01T14:13:05.412Z,30.30
2017-10-01T14:15:31.679Z,28.90
2017-10-01T14:17:58.024Z,27.90
2017-10-01T14:20:24.701Z,25.80
2017-10-01T14:22:50.987Z,25.80
2017-10-01T14:25:17.279Z,24.90
2017-10-01T14:27:43.585Z,24.20
2017-10-01T14:30:09.863Z,24.70
2017-10-01T14:32:36.997Z,28.00
2017-10-01T14:35:03.349Z,32.30
2017-10-01T14:37:29.677Z,35.80
2017-10-01T14:39:56.056Z,38.30
2017-10-01T14:42:22.353Z,39.80
2017-10-01T14:44:49.040Z,38.60
2017-10-01T14:47:15.368Z,38.60
2017-10-01T14:49:41.734Z,36.90
2017-10-01T14:52:08.842Z,35.00
2017-10-01T14:54:36.126Z,33.00
2017-10-01T14:57:03.064Z,31.30
2017-10-01T14:59:30.333Z,29.80
2017-10-01T15:01:56.678Z,28.30
2017-10-01T15:04:23.381Z,26.30
2017-10-01T15:06:49.669Z,26.30
2017-10-01T15:09:16.028Z,25.70
2017-10-01T15:11:42.348Z,25.30
2017-10-01T15:14:08.645Z,24.80
2017-10-01T15:16:35.373Z,23.70
2017-10-01T15:19:01.705Z,23.70
2017-10-01T15:21:28.861Z,22.90
2017-10-01T15:23:55.175Z,22.70
2017-10-01T15:26:21.521Z,22.30
2017-10-01T15:28:47.833Z,22.00
2017-10-01T15:31:14.123Z,21.70
2017-10-01T15:33:40.433Z,21.40
2017-10-01T15:36:06.707Z,21.00
2017-10-01T15:38:33.040Z,20.70
2017-10-01T15:40:59.402Z,20.40
2017-10-01T15:43:26.063Z,19.90
2017-10-01T15:45:52.392Z,19.90
2017-10-01T15:48:18.685Z,19.70
2017-10-01T15:50:46.179Z,19.50
2017-10-01T15:53:12.476Z,19.30
2017-10-01T15:55:38.778Z,19.20
2017-10-01T15:58:05.051Z,19.00
2017-10-01T16:00:31.748Z,18.80
2017-10-01T16:02:58.065Z,18.80
2017-10-01T16:05:31.559Z,18.70
2017-10-01T16:07:57.860Z,18.50
2017-10-01T16:10:24.139Z,18.20
2017-10-01T16:12:50.505Z,18.10
2017-10-01T16:15:17.020Z,18.00
2017-10-01T16:17:43.362Z,17.90
2017-10-01T16:20:10.709Z,17.70
2017-10-01T16:22:37.019Z,17.50
2017-10-01T16:25:03.328Z,17.50
2017-10-01T16:27:29.666Z,17.30
2017-10-01T16:29:56.148Z,17.20
2017-10-01T16:32:22.552Z,17.00
2017-10-01T16:34:48.904Z,16.90
2017-10-01T16:37:15.228Z,16.70
2017-10-01T16:39:41.548Z,16.60
2017-10-01T16:42:08.475Z,16.50
2017-10-01T16:44:35.622Z,16.50
2017-10-01T16:47:02.555Z,16.30
2017-10-01T16:49:28.863Z,16.20
2017-10-01T16:51:55.426Z,16.10
2017-10-01T16:54:21.986Z,16.10
2017-10-01T16:56:48.285Z,16.00
2017-10-01T16:59:14.600Z,15.90
2017-10-01T17:01:41.603Z,15.70
2017-10-01T17:04:07.993Z,15.60
2017-10-01T17:06:34.321Z,15.60
2017-10-01T17:09:00.614Z,15.50
2017-10-01T17:11:27.328Z,15.30
2017-10-01T17:13:53.637Z,15.30
2017-10-01T17:16:19.960Z,15.20
2017-10-01T17:18:46.309Z,15.10
2017-10-01T17:21:12.648Z,15.00
2017-10-01T17:23:39.089Z,14.90
2017-10-01T17:26:05.368Z,14.90
2017-10-01T17:28:32.456Z,14.80
2017-10-01T17:30:58.786Z,14.70
2017-10-01T17:33:25.217Z,14.60
2017-10-01T17:35:51.616Z,14.50
2017-10-01T17:38:18.080Z,14.40
2017-10-01T17:40:44.437Z,14.40
2017-10-01T17:43:10.980Z,14.30
2017-10-01T17:45:38.347Z,14.20
2017-10-01T17:48:04.783Z,14.20
2017-10-01T17:50:31.113Z,14.10
2017-10-01T17:52:59.009Z,14.00
2017-10-01T17:55:25.388Z,13.80
2017-10-01T17:57:52.551Z,13.70
2017-10-01T18:00:19.065Z,13.70
2017-10-01T18:02:45.457Z,13.70
2017-10-01T18:05:11.768Z,13.60
2017-10-01T18:07:38.130Z,13.60
2017-10-01T18:10:04.476Z,13.60
2017-10-01T18:12:30.764Z,13.50
2017-10-01T18:14:57.089Z,13.60
2017-10-01T18:17:24.474Z,13.50
2017-10-01T18:19:50.800Z,13.50
2017-10-01T18:22:17.976Z,13.40
2017-10-01T18:24:44.372Z,13.30
2017-10-01T18:27:10.712Z,13.20
2017-10-01T18:29:37.092Z,13.20
2017-10-01T18:32:03.680Z,13.10
2017-10-01T18:34:30.111Z,13.20
2017-10-01T18:36:57.573Z,13.20
2017-10-01T18:39:24.856Z,13.20
2017-10-01T18:41:51.832Z,13.10
2017-10-01T18:44:18.209Z,13.10
2017-10-01T18:46:44.524Z,13.00
2017-10-01T18:49:11.006Z,13.00
2017-10-01T18:51:37.524Z,13.00
2017-10-01T18:54:03.982Z,12.90
2017-10-01T18:56:30.943Z,12.90
2017-10-01T18:58:58.592Z,12.90
2017-10-01T19:01:25.240Z,12.80
2017-10-01T19:03:51.584Z,12.70
2017-10-01T19:06:17.950Z,12.80
2017-10-01T19:08:44.673Z,12.70
2017-10-01T19:11:10.983Z,12.60
2017-10-01T19:13:37.934Z,12.70
2017-10-01T19:16:05.103Z,12.70
2017-10-01T19:18:31.423Z,12.60
2017-10-01T19:20:58.446Z,12.60
2017-10-01T19:23:25.141Z,12.50
2017-10-01T19:25:51.442Z,12.50
2017-10-01T19:28:17.769Z,12.50
2017-10-01T19:30:44.120Z,12.50
2017-10-01T19:33:11.408Z,12.50
2017-10-01T19:35:37.769Z,12.50
2017-10-01T19:38:04.397Z,12.40
2017-10-01T19:40:32.314Z,12.30
2017-10-01T19:42:59.388Z,12.30
2017-10-01T19:45:25.778Z,12.30
2017-10-01T19:47:52.276Z,12.20
2017-10-01T19:50:18.583Z,12.20
2017-10-01T19:52:46.148Z,12.10
2017-10-01T19:55:12.847Z,12.00
2017-10-01T19:57:39.903Z,11.90
2017-10-01T20:00:06.295Z,12.00
2017-10-01T20:02:32.624Z,11.90
2017-10-01T20:04:59.050Z,11.90
2017-10-01T20:07:25.428Z,11.90
2017-10-01T20:09:51.718Z,11.90
2017-10-01T20:12:18.124Z,11.90
2017-10-01T20:14:44.521Z,11.90
2017-10-01T20:17:10.849Z,11.80
2017-10-01T20:19:37.143Z,11.80
2017-10-01T20:22:03.505Z,11.70
2017-10-01T20:24:29.850Z,11.60
2017-10-01T20:26:56.176Z,11.70
2017-10-01T20:29:22.494Z,11.70
2017-10-01T20:31:49.609Z,11.70
2017-10-01T20:34:16.485Z,11.70
2017-10-01T20:36:42.821Z,11.70
2017-10-01T20:39:09.186Z,11.60
2017-10-01T20:41:35.587Z,11.60
2017-10-01T20:44:02.856Z,11.70
2017-10-01T20:46:29.495Z,11.70
2017-10-01T20:48:56.185Z,11.60
2017-10-01T20:51:22.553Z,11.60
2017-10-01T20:53:48.946Z,11.60
2017-10-01T20:56:16.066Z,11.40
2017-10-01T20:58:42.747Z,11.20
2017-10-01T21:01:09.135Z,11.20
2017-10-01T21:03:35.870Z,11.20
2017-10-01T21:06:02.252Z,11.20
2017-10-01T21:08:28.636Z,11.20
2017-10-01T21:10:55.412Z,11.10
2017-10-01T21:13:21.843Z,11.20
2017-10-01T21:15:48.222Z,11.20
2017-10-01T21:18:15.032Z,11.20
2017-10-01T21:20:41.873Z,11.20
2017-10-01T21:23:08.184Z,11.20
2017-10-01T21:25:34.512Z,11.10
2017-10-01T21:28:00.791Z,11.10
2017-10-01T21:30:27.085Z,11.00
2017-10-01T21:32:53.384Z,11.10
2017-10-01T21:35:20.044Z,11.00
2017-10-01T21:37:46.420Z,11.00
2017-10-01T21:40:12.728Z,11.00
2017-10-01T21:42:40.471Z,10.90
2017-10-01T21:45:06.768Z,10.90
2017-10-01T21:47:33.455Z,10.90
2017-10-01T21:49:59.730Z,10.90
2017-10-01T21:52:26.063Z,10.80
2017-10-01T21:54:52.355Z,10.80
2017-10-01T21:57:18.661Z,10.80
2017-10-01T21:59:44.930Z,10.70
2017-10-01T22:02:11.220Z,10.80
2017-10-01T22:04:37.491Z,10.80
2017-10-01T22:07:03.826Z,10.80
2017-10-01T22:09:30.135Z,10.80
2017-10-01T22:11:56.784Z,10.90
2017-10-01T22:14:23.077Z,10.90
2017-10-01T22:16:49.379Z,11.00
2017-10-01T22:19:16.017Z,11.00
2017-10-01T22:21:42.679Z,11.00
2017-10-01T22:24:09.288Z,11.00
2017-10-01T22:26:36.554Z,10.90
2017-10-01T22:29:02.906Z,10.80
2017-10-01T22:31:29.192Z,10.70
2017-10-01T22:33:56.495Z,10.70
2017-10-01T22:36:22.804Z,10.70
2017-10-01T22:38:49.104Z,10.80
2017-10-01T22:41:15.798Z,10.90
2017-10-01T22:43:43.934Z,10.90
2017-10-01T22:46:11.177Z,10.90
2017-10-01T22:48:37.481Z,10.90
2017-10-01T22:51:03.775Z,11.00
2017-10-01T22:53:30.055Z,10.90
2017-10-01T22:55:58.084Z,10.90
2017-10-01T22:58:24.396Z,10.90
2017-10-01T23:00:50.663Z,10.90
2017-10-01T23:03:17.911Z,10.90
2017-10-01T23:05:44.183Z,10.90
2017-10-01T23:08:11.538Z,10.80
2017-10-01T23:10:37.823Z,10.80
2017-10-01T23:13:04.112Z,10.70
2017-10-01T23:15:30.368Z,10.70
2017-10-01T23:17:56.690Z,10.70
2017-10-01T23:20:22.942Z,10.70
2017-10-01T23:22:49.878Z,10.70
2017-10-01T23:25:16.169Z,10.70
2017-10-01T23:27:42.422Z,10.70
2017-10-01T23:30:08.957Z,10.70
2017-10-01T23:32:35.216Z,10.70
2017-10-01T23:35:01.471Z,10.70
2017-10-01T23:37:27.756Z,10.70
2017-10-01T23:39:54.054Z,10.70
2017-10-01T23:42:20.361Z,10.70
2017-10-01T23:44:47.008Z,10.80
2017-10-01T23:47:13.292Z,10.80
2017-10-01T23:49:39.606Z,10.80
2017-10-01T23:52:05.864Z,10.80
2017-10-01T23:54:32.158Z,10.80
2017-10-01T23:56:58.438Z,10.80
2017-10-01T23:59:25.099Z,10.80
